Time;durP1;ratioP1;P1;durP2;ratioP2;P2;SDS_P1;SDS_P2;PMS_P1;PMS_P2;Temp;Humidity;BMP_temperature;BMP_pressure;BME280_temperature;BME280_humidity;BME280_pressure;Samples;Min_cycle;Max_cycle;Signal;HPM_P1;HPM_P2
2022/12/11 00:02:20;;;;;;;;;;;;;;;9.01;49.48;100107.59;4957985;28;128281;-65
2022/12/11 00:04:46;;;;;;;;;;;;;;;9.01;49.90;100106.78;4957846;28;118287;-65
2022/12/11 00:07:12;;;;;;;;;;;;;;;9.01;49.87;100101.41;4972563;28;125973;-65
2022/12/11 00:09:38;;;;;;;;;;;;;;;9.00;49.19;100105.97;4945387;28;128193;-62
2022/12/11 00:12:06;;;;;;;;;;;;;;;9.01;49.55;100106.78;4926389;28;127220;-62
2022/12/11 00:14:32;;;;;;;;;;;;;;;9.00;49.86;100114.03;4964226;28;97880;-61
2022/12/11 00:16:58;;;;;;;;;;;;;;;9.00;50.02;100115.91;4943469;28;124035;-62
2022/12/11 00:19:23;;;;;;;;;;;;;;;9.00;49.48;100115.91;4957306;28;127809;-62
2022/12/11 00:21:49;;;;;;;;;;;;;;;9.00;49.57;100115.91;4943982;28;126317;-65
2022/12/11 00:24:15;;;;;;;;;;;;;;;8.99;49.78;100107.03;4939631;28;117492;-62
2022/12/11 00:26:41;;;;;;;;;;;;;;;8.99;49.86;100103.53;4959647;28;128186;-62
2022/12/11 00:29:13;;;;;;;;;;;;;;;8.99;49.86;100106.22;4948165;28;98156;-62
2022/12/11 00:31:39;;;;;;;;;;;;;;;8.98;49.59;100105.41;4958679;28;98137;-65
2022/12/11 00:34:05;;;;;;;;;;;;;;;8.99;49.65;100100.84;4975541;28;111466;-62
2022/12/11 00:36:31;;;;;;;;;;;;;;;8.99;49.32;100107.03;4963314;28;128427;-62
2022/12/11 00:38:57;;;;;;;;;;;;;;;8.99;49.49;100108.91;4932128;27;127772;-62
2022/12/11 00:41:23;;;;;;;;;;;;;;;9.00;49.72;100113.22;4925761;28;130422;-66
2022/12/11 00:43:49;;;;;;;;;;;;;;;9.00;49.28;100115.91;4957668;28;104292;-62
2022/12/11 00:46:15;;;;;;;;;;;;;;;9.00;49.71;100113.22;4944570;28;122020;-65
2022/12/11 00:48:41;;;;;;;;;;;;;;;9.01;49.61;100117.53;4963115;28;121745;-62
2022/12/11 00:51:07;;;;;;;;;;;;;;;9.01;49.64;100120.22;4939166;28;128931;-65
2022/12/11 00:53:33;;;;;;;;;;;;;;;9.02;49.46;100116.44;4961014;28;118225;-65
2022/12/11 00:55:58;;;;;;;;;;;;;;;9.02;50.08;100116.44;4954380;28;128644;-62
2022/12/11 00:58:24;;;;;;;;;;;;;;;9.03;49.71;100112.69;4945037;28;128338;-62
2022/12/11 01:00:50;;;;;;;;;;;;;;;9.02;49.94;100119.94;4958627;28;126362;-62
2022/12/11 01:03:16;;;;;;;;;;;;;;;9.03;49.78;100115.38;4958274;28;100208;-65
2022/12/11 01:05:51;;;;;;;;;;;;;;;9.05;49.35;100110.53;4946637;28;127639;-65
2022/12/11 01:08:17;;;;;;;;;;;;;;;9.04;49.33;100111.63;4955735;28;98479;-65
2022/12/11 01:10:43;;;;;;;;;;;;;;;9.04;49.66;100107.06;4963905;28;117876;-62
2022/12/11 01:13:09;;;;;;;;;;;;;;;9.04;50.09;100117.81;4943456;28;117095;-65
2022/12/11 01:15:40;;;;;;;;;;;;;;;9.05;49.36;100107.84;4943143;28;97971;-65
2022/12/11 01:18:06;;;;;;;;;;;;;;;9.05;49.50;100111.34;4956897;28;122899;-65
2022/12/11 01:20:32;;;;;;;;;;;;;;;9.05;49.38;100110.53;4938976;28;127951;-65
2022/12/11 01:22:59;;;;;;;;;;;;;;;9.05;49.52;100111.34;4943039;28;114623;-62
2022/12/11 01:25:25;;;;;;;;;;;;;;;9.06;49.82;100115.66;4977287;28;99114;-62
2022/12/11 01:27:52;;;;;;;;;;;;;;;9.06;49.48;100109.47;4960116;28;98465;-63
2022/12/11 01:30:18;;;;;;;;;;;;;;;9.06;49.60;100112.97;4940896;28;121281;-65
2022/12/11 01:32:44;;;;;;;;;;;;;;;9.05;49.60;100105.97;4959205;28;98206;-65
2022/12/11 01:35:10;;;;;;;;;;;;;;;9.06;49.18;100106.78;4938898;28;127401;-65
2022/12/11 01:37:36;;;;;;;;;;;;;;;9.06;49.17;100106.78;4940272;28;124614;-65
2022/12/11 01:40:04;;;;;;;;;;;;;;;9.05;49.51;100108.66;4941540;28;127667;-63
2022/12/11 01:42:29;;;;;;;;;;;;;;;9.06;49.72;100110.28;4942614;28;99381;-65
2022/12/11 01:45:20;;;;;;;;;;;;;;;9.05;49.48;100103.28;4958165;28;127619;-65
2022/12/11 01:47:50;;;;;;;;;;;;;;;9.06;49.08;100109.47;4973060;28;98425;-65
2022/12/11 01:50:15;;;;;;;;;;;;;;;9.06;50.00;100107.59;4959087;28;119227;-65
2022/12/11 01:52:43;;;;;;;;;;;;;;;9.07;49.73;100111.06;4977118;27;117901;-65
2022/12/11 01:55:09;;;;;;;;;;;;;;;9.06;49.44;100104.91;4940710;28;100345;-63
2022/12/11 01:57:36;;;;;;;;;;;;;;;9.06;49.41;100099.53;4962871;28;129523;-65
2022/12/11 02:00:02;;;;;;;;;;;;;;;9.07;49.25;100098.44;4931296;28;98370;-65
2022/12/11 02:02:31;;;;;;;;;;;;;;;9.07;49.25;100095.75;4961574;28;98109;-66
2022/12/11 02:04:56;;;;;;;;;;;;;;;9.07;49.43;100103.81;4959766;28;98851;-66
2022/12/11 02:07:22;;;;;;;;;;;;;;;9.06;49.67;100102.22;4945632;28;128057;-65
2022/12/11 02:09:48;;;;;;;;;;;;;;;9.07;50.14;100100.31;4945310;28;127977;-66
2022/12/11 02:12:37;;;;;;;;;;;;;;;9.07;49.18;100100.31;4945939;28;117985;-63
2022/12/11 02:15:16;;;;;;;;;;;;;;;9.06;49.17;100107.59;4959105;28;98078;-65
2022/12/11 02:17:45;;;;;;;;;;;;;;;9.07;50.03;100106.50;4979056;28;119177;-66
2022/12/11 02:20:21;;;;;;;;;;;;;;;9.07;49.51;100101.13;4964701;28;99232;-67
2022/12/11 02:23:06;;;;;;;;;;;;;;;9.08;49.47;100102.75;4962881;28;108290;-65
2022/12/11 02:25:38;;;;;;;;;;;;;;;9.06;49.57;100102.22;4974807;28;99551;-65
2022/12/11 02:28:17;;;;;;;;;;;;;;;9.07;49.11;100106.50;4964229;28;98431;-65
2022/12/11 02:30:50;;;;;;;;;;;;;;;9.06;49.47;100094.13;4963026;28;98137;-65
2022/12/11 02:33:15;;;;;;;;;;;;;;;9.07;49.40;100089.56;4966696;28;114043;-63
2022/12/11 02:35:42;;;;;;;;;;;;;;;9.07;50.21;100095.75;4971095;28;128147;-63
2022/12/11 02:38:20;;;;;;;;;;;;;;;9.07;49.25;100081.50;4958229;28;128320;-63
2022/12/11 02:40:46;;;;;;;;;;;;;;;9.07;49.52;100082.31;4925877;28;121842;-65
2022/12/11 02:43:14;;;;;;;;;;;;;;;9.08;49.15;100083.94;4945430;28;100800;-63
2022/12/11 02:45:40;;;;;;;;;;;;;;;9.07;49.47;100082.31;4946232;28;98441;-63
2022/12/11 02:48:06;;;;;;;;;;;;;;;9.07;49.72;100082.31;4945287;28;99636;-63
2022/12/11 02:50:32;;;;;;;;;;;;;;;9.07;50.14;100084.19;4930622;28;112408;-65
2022/12/11 02:52:58;;;;;;;;;;;;;;;9.06;49.28;100083.38;4945089;28;118101;-65
2022/12/11 02:55:25;;;;;;;;;;;;;;;9.07;49.52;100078.81;4961619;28;128143;-65
2022/12/11 02:57:55;;;;;;;;;;;;;;;9.07;49.92;100090.38;4944971;28;127621;-66
2022/12/11 03:00:21;;;;;;;;;;;;;;;9.07;49.73;100082.31;4941754;28;120869;-63
2022/12/11 03:02:47;;;;;;;;;;;;;;;9.07;49.36;100085.00;4955907;28;117298;-63
2022/12/11 03:05:13;;;;;;;;;;;;;;;9.07;50.03;100086.88;4959520;28;126244;-65
2022/12/11 03:07:39;;;;;;;;;;;;;;;9.07;49.63;100092.25;4959221;28;97866;-63
2022/12/11 03:10:07;;;;;;;;;;;;;;;9.07;49.83;100086.88;4958517;28;128982;-66
2022/12/11 03:12:35;;;;;;;;;;;;;;;9.07;49.98;100094.94;4945073;28;97973;-66
2022/12/11 03:15:03;;;;;;;;;;;;;;;9.07;49.14;100101.13;4943885;28;98003;-63
2022/12/11 03:17:30;;;;;;;;;;;;;;;9.08;49.88;100099.28;4974582;28;127483;-66
2022/12/11 03:20:03;;;;;;;;;;;;;;;9.08;49.50;100104.66;4954222;28;99483;-63
2022/12/11 03:22:40;;;;;;;;;;;;;;;9.09;49.74;100098.19;4958207;28;97961;-63
2022/12/11 03:25:11;;;;;;;;;;;;;;;9.09;50.18;100100.88;4960849;28;126046;-63
2022/12/11 03:27:41;;;;;;;;;;;;;;;9.09;49.10;100098.19;4960297;28;98856;-63
2022/12/11 03:30:09;;;;;;;;;;;;;;;9.07;49.65;100092.25;4947214;28;121561;-63
2022/12/11 03:32:47;;;;;;;;;;;;;;;9.08;49.47;100089.31;4935865;28;105978;-66
2022/12/11 03:35:23;;;;;;;;;;;;;;;9.07;49.32;100090.38;4959857;28;98319;-66
2022/12/11 03:37:49;;;;;;;;;;;;;;;9.09;49.20;100092.81;4964028;28;99524;-63
2022/12/11 03:40:16;;;;;;;;;;;;;;;9.08;49.35;100097.38;4929276;28;126536;-63
2022/12/11 03:42:43;;;;;;;;;;;;;;;9.08;49.41;100099.28;4957455;28;117037;-63
2022/12/11 03:45:09;;;;;;;;;;;;;;;9.07;49.25;100095.75;4959578;28;98160;-63
2022/12/11 03:47:36;;;;;;;;;;;;;;;9.07;49.21;100098.44;4962290;28;98536;-64
2022/12/11 03:50:03;;;;;;;;;;;;;;;9.07;49.28;100095.75;4944987;28;122674;-63
2022/12/11 03:52:29;;;;;;;;;;;;;;;9.07;50.09;100098.44;4977441;28;101786;-66
2022/12/11 03:54:56;;;;;;;;;;;;;;;9.07;49.30;100097.63;4945555;28;115513;-66
2022/12/11 03:57:22;;;;;;;;;;;;;;;9.06;49.34;100096.03;4930602;28;97857;-63
2022/12/11 03:59:48;;;;;;;;;;;;;;;9.05;49.43;100097.91;4923041;28;130207;-68
2022/12/11 04:02:14;;;;;;;;;;;;;;;9.05;49.50;100097.91;4945605;28;116442;-63
2022/12/11 04:04:41;;;;;;;;;;;;;;;9.06;49.74;100091.44;4974724;28;128790;-63
2022/12/11 04:07:07;;;;;;;;;;;;;;;9.05;49.41;100095.22;4958037;28;99471;-66
2022/12/11 04:09:33;;;;;;;;;;;;;;;9.05;49.16;100095.22;4955584;28;121470;-66
2022/12/11 04:11:59;;;;;;;;;;;;;;;9.06;49.37;100101.41;4960336;28;118547;-63
2022/12/11 04:17:09;;;;;;;;;;;;;;;9.04;49.66;100099.00;4957965;28;99682;-63
2022/12/11 04:25:05;;;;;;;;;;;;;;;9.04;49.85;100098.19;4959752;28;98501;-66
2022/12/11 04:27:49;;;;;;;;;;;;;;;9.04;49.19;100099.00;4956441;28;104946;-66
2022/12/11 04:30:17;;;;;;;;;;;;;;;9.03;50.20;100094.66;4977237;28;98126;-66
2022/12/11 04:32:44;;;;;;;;;;;;;;;9.04;49.98;100096.31;4956526;28;98244;-66
2022/12/11 04:35:09;;;;;;;;;;;;;;;9.04;49.35;100099.00;4959385;28;127592;-66
2022/12/11 04:37:36;;;;;;;;;;;;;;;9.04;49.19;100092.81;4962781;28;131119;-66
2022/12/11 04:40:03;;;;;;;;;;;;;;;9.04;49.32;100096.31;4965092;28;128299;-66
2022/12/11 04:42:29;;;;;;;;;;;;;;;9.04;49.75;100098.19;4958992;28;97867;-67
2022/12/11 04:44:54;;;;;;;;;;;;;;;9.05;49.70;100094.41;4941954;28;97791;-63
2022/12/11 04:47:20;;;;;;;;;;;;;;;9.06;49.70;100082.59;4974877;28;128918;-63
2022/12/11 04:49:46;;;;;;;;;;;;;;;9.05;49.38;100097.09;4941902;28;126993;-63
2022/12/11 04:52:12;;;;;;;;;;;;;;;9.05;49.79;100084.47;4944186;28;117576;-63
2022/12/11 04:54:38;;;;;;;;;;;;;;;9.04;49.68;100082.84;4942423;28;124309;-63
2022/12/11 04:57:04;;;;;;;;;;;;;;;9.05;49.13;100079.09;4930508;28;99246;-63
2022/12/11 04:59:31;;;;;;;;;;;;;;;9.04;49.44;100076.69;4942082;28;126351;-66
2022/12/11 05:01:57;;;;;;;;;;;;;;;9.05;49.18;100072.91;4944037;28;98024;-63
2022/12/11 05:04:23;;;;;;;;;;;;;;;9.05;49.57;100079.09;4973146;28;128248;-64
2022/12/11 05:06:49;;;;;;;;;;;;;;;9.05;49.73;100080.97;4938125;28;128577;-66
2022/12/11 05:09:15;;;;;;;;;;;;;;;9.04;49.38;100082.84;4944304;28;99643;-63
2022/12/11 05:11:41;;;;;;;;;;;;;;;9.05;49.68;100078.28;4942450;28;117038;-66
2022/12/11 05:14:07;;;;;;;;;;;;;;;9.03;49.76;100073.16;4926732;28;129865;-66
2022/12/11 05:16:33;;;;;;;;;;;;;;;9.04;50.06;100074.78;4966610;28;98623;-66
2022/12/11 05:18:59;;;;;;;;;;;;;;;9.03;49.27;100067.78;4958055;28;126162;-64
2022/12/11 05:21:25;;;;;;;;;;;;;;;9.03;49.28;100070.47;4937728;28;116593;-64
2022/12/11 05:23:51;;;;;;;;;;;;;;;9.00;49.40;100068.34;4961661;28;128872;-65
2022/12/11 05:26:18;;;;;;;;;;;;;;;9.02;49.33;100068.06;4928920;28;127616;-66
2022/12/11 05:28:44;;;;;;;;;;;;;;;9.01;49.40;100072.63;4950685;28;98218;-66
2022/12/11 05:31:18;;;;;;;;;;;;;;;9.00;49.09;100062.13;4920156;28;117552;-64
2022/12/11 05:33:44;;;;;;;;;;;;;;;9.00;49.33;100064.81;4946896;28;98368;-66
2022/12/11 05:36:17;;;;;;;;;;;;;;;8.99;49.02;100057.81;4940243;28;98218;-64
2022/12/11 05:38:43;;;;;;;;;;;;;;;8.97;49.87;100058.09;4957356;28;98332;-67
2022/12/11 05:41:11;;;;;;;;;;;;;;;8.97;49.36;100060.78;4966279;28;97891;-67
2022/12/11 05:43:37;;;;;;;;;;;;;;;8.97;49.67;100049.25;4942818;28;126262;-64
2022/12/11 05:46:07;;;;;;;;;;;;;;;8.97;49.42;100057.31;4960009;28;97938;-64
2022/12/11 05:48:33;;;;;;;;;;;;;;;8.96;49.46;100055.66;4943732;28;100333;-66
2022/12/11 05:51:00;;;;;;;;;;;;;;;8.96;49.98;100052.97;4965865;28;109952;-66
2022/12/11 05:53:26;;;;;;;;;;;;;;;8.95;50.07;100062.94;4957859;28;98765;-66
2022/12/11 05:55:52;;;;;;;;;;;;;;;8.95;49.56;100054.84;4943263;28;119567;-64
2022/12/11 05:58:18;;;;;;;;;;;;;;;8.94;49.11;100058.63;4946458;28;128005;-66
2022/12/11 06:00:44;;;;;;;;;;;;;;;8.93;49.74;100051.66;4944836;28;107767;-67
2022/12/11 06:03:10;;;;;;;;;;;;;;;8.93;49.54;100045.47;4954385;28;128939;-67
2022/12/11 06:05:39;;;;;;;;;;;;;;;8.92;49.75;100044.66;4959586;28;127662;-67
2022/12/11 06:08:05;;;;;;;;;;;;;;;8.89;49.62;100042.50;4958744;28;126198;-64
2022/12/11 06:10:31;;;;;;;;;;;;;;;8.91;49.38;100047.59;4965816;28;98017;-66
2022/12/11 06:12:57;;;;;;;;;;;;;;;8.89;49.42;100047.06;4946295;28;100003;-65
2022/12/11 06:15:23;;;;;;;;;;;;;;;8.88;49.18;100042.75;4943828;28;128323;-67
2022/12/11 06:17:49;;;;;;;;;;;;;;;8.88;49.40;100046.25;4933958;28;99331;-65
2022/12/11 06:20:15;;;;;;;;;;;;;;;8.88;49.00;100045.44;4957028;28;116938;-67
2022/12/11 06:22:41;;;;;;;;;;;;;;;8.88;49.26;100046.25;4946472;28;119595;-65
2022/12/11 06:25:08;;;;;;;;;;;;;;;8.88;49.58;100050.81;4961313;28;126784;-68
2022/12/11 06:27:34;;;;;;;;;;;;;;;8.87;49.92;100050.00;4980809;28;98051;-65
2022/12/11 06:30:00;;;;;;;;;;;;;;;8.87;49.73;100055.38;4945969;28;117315;-65
2022/12/11 06:32:26;;;;;;;;;;;;;;;8.86;49.46;100056.47;4960646;28;129458;-65
2022/12/11 06:34:51;;;;;;;;;;;;;;;8.86;49.75;100059.16;4943709;28;128732;-65
2022/12/11 06:37:17;;;;;;;;;;;;;;;8.88;49.63;100065.06;4958900;28;125634;-67
2022/12/11 06:39:43;;;;;;;;;;;;;;;8.89;49.45;100065.88;4944227;28;119087;-65
2022/12/11 06:42:09;;;;;;;;;;;;;;;8.91;49.89;100072.59;4957508;28;128312;-65
2022/12/11 06:44:35;;;;;;;;;;;;;;;8.93;49.21;100066.97;4955501;28;128179;-65
2022/12/11 06:47:02;;;;;;;;;;;;;;;8.95;49.34;100076.38;4943246;28;98044;-65
2022/12/11 06:49:29;;;;;;;;;;;;;;;8.97;49.27;100070.75;4946565;28;105017;-65
2022/12/11 06:51:55;;;;;;;;;;;;;;;8.99;49.84;100074.75;4958190;28;100109;-66
2022/12/11 06:54:25;;;;;;;;;;;;;;;9.01;49.54;100067.25;4957703;28;128353;-67
2022/12/11 06:56:51;;;;;;;;;;;;;;;9.03;49.11;100067.78;4958331;28;98246;-67
2022/12/11 06:59:17;;;;;;;;;;;;;;;9.07;49.56;100073.44;4970027;28;118471;-67
2022/12/11 07:01:43;;;;;;;;;;;;;;;9.08;49.49;100058.94;4940813;28;98185;-68
2022/12/11 07:04:09;;;;;;;;;;;;;;;9.12;48.86;100067.25;4975787;28;123674;-66
2022/12/11 07:06:35;;;;;;;;;;;;;;;9.13;49.26;100067.00;4973103;28;125551;-65
2022/12/11 07:09:04;;;;;;;;;;;;;;;9.14;49.86;100074.00;4976340;28;117793;-65
2022/12/11 07:11:29;;;;;;;;;;;;;;;9.16;49.74;100071.84;4970829;28;99598;-69
2022/12/11 07:13:58;;;;;;;;;;;;;;;9.18;49.67;100074.25;4951916;28;128319;-66
2022/12/11 07:16:25;;;;;;;;;;;;;;;9.19;49.46;100082.06;4955206;28;98110;-69
2022/12/11 07:18:50;;;;;;;;;;;;;;;9.21;48.93;100079.91;4959843;28;105170;-68
2022/12/11 07:21:17;;;;;;;;;;;;;;;9.23;49.06;100076.94;4941136;28;129752;-65
2022/12/11 07:23:42;;;;;;;;;;;;;;;9.24;49.25;100087.47;4954686;28;119703;-65
2022/12/11 07:26:11;;;;;;;;;;;;;;;9.26;48.75;100085.28;4954098;28;127841;-66
2022/12/11 07:28:37;;;;;;;;;;;;;;;9.28;49.05;100093.13;4937971;28;98274;-67
2022/12/11 07:31:10;;;;;;;;;;;;;;;9.28;49.56;100088.53;4936885;28;98806;-66
2022/12/11 07:33:36;;;;;;;;;;;;;;;9.30;48.91;100097.13;4956849;28;98523;-67
2022/12/11 07:36:03;;;;;;;;;;;;;;;9.32;49.45;100097.69;4944496;28;113608;-65
2022/12/11 07:38:29;;;;;;;;;;;;;;;9.33;48.89;100096.59;4957587;28;98040;-69
2022/12/11 07:40:54;;;;;;;;;;;;;;;9.36;49.52;100092.56;4938738;28;99580;-67
2022/12/11 07:43:20;;;;;;;;;;;;;;;9.40;48.77;100098.22;4935496;28;108859;-69
2022/12/11 07:45:46;;;;;;;;;;;;;;;9.43;49.62;100094.97;4966321;28;127842;-69
2022/12/11 07:48:12;;;;;;;;;;;;;;;9.45;49.32;100099.03;4972546;28;116015;-66
2022/12/11 07:50:38;;;;;;;;;;;;;;;9.48;49.34;100101.19;4938412;28;98473;-65
2022/12/11 07:53:04;;;;;;;;;;;;;;;9.49;49.39;100097.41;4934574;28;126785;-65
2022/12/11 07:55:31;;;;;;;;;;;;;;;9.52;48.89;100098.78;4934407;28;127519;-67
2022/12/11 07:57:57;;;;;;;;;;;;;;;9.54;49.65;100105.47;4953711;28;117725;-66
2022/12/11 08:00:23;;;;;;;;;;;;;;;9.58;49.31;100103.06;4938704;28;99900;-69
2022/12/11 08:02:49;;;;;;;;;;;;;;;9.61;49.17;100101.72;4972739;28;125926;-65
2022/12/11 08:05:14;;;;;;;;;;;;;;;9.65;49.21;100100.09;4956154;28;128680;-65
2022/12/11 08:07:40;;;;;;;;;;;;;;;9.69;48.93;100095.81;4952332;28;115208;-69
2022/12/11 08:10:07;;;;;;;;;;;;;;;9.72;49.23;100098.75;4954991;28;126913;-66
2022/12/11 08:12:32;;;;;;;;;;;;;;;9.77;48.93;100095.25;4955687;28;100386;-66
2022/12/11 08:14:58;;;;;;;;;;;;;;;9.82;49.20;100092.56;4941097;28;99039;-65
2022/12/11 08:17:24;;;;;;;;;;;;;;;9.88;48.69;100096.06;4965955;28;118558;-69
2022/12/11 08:19:50;;;;;;;;;;;;;;;9.93;49.27;100096.84;4969648;27;125345;-67
2022/12/11 08:22:16;;;;;;;;;;;;;;;9.96;48.94;100090.13;4953530;28;129716;-65
2022/12/11 08:24:42;;;;;;;;;;;;;;;10.02;49.30;100091.72;4938415;28;127588;-65
2022/12/11 08:27:08;;;;;;;;;;;;;;;10.07;49.26;100099.81;4942499;28;98130;-69
2022/12/11 08:29:34;;;;;;;;;;;;;;;10.11;48.88;100095.47;4971715;28;127152;-66
2022/12/11 08:32:00;;;;;;;;;;;;;;;10.14;48.57;100092.25;4955519;28;128555;-65
2022/12/11 08:34:26;;;;;;;;;;;;;;;10.17;49.13;100093.56;4940929;28;99342;-69
2022/12/11 08:36:52;;;;;;;;;;;;;;;10.19;49.07;100094.91;4956738;28;117922;-66
2022/12/11 08:39:17;;;;;;;;;;;;;;;10.20;49.02;100093.84;4939291;28;116418;-67
2022/12/11 08:41:43;;;;;;;;;;;;;;;10.24;48.81;100091.41;4954172;28;128201;-68
2022/12/11 08:44:12;;;;;;;;;;;;;;;10.27;49.11;100080.13;4939620;28;128527;-65
2022/12/11 08:46:38;;;;;;;;;;;;;;;10.31;49.06;100081.97;4938513;28;97991;-66
2022/12/11 08:49:04;;;;;;;;;;;;;;;10.32;48.93;100080.09;4955719;28;100030;-65
2022/12/11 08:51:30;;;;;;;;;;;;;;;10.36;48.57;100077.66;4939503;28;99494;-67
2022/12/11 08:53:58;;;;;;;;;;;;;;;10.37;49.07;100081.97;4853492;28;127880;-68
2022/12/11 08:56:24;;;;;;;;;;;;;;;10.37;48.72;100077.38;4950524;28;114875;-65
2022/12/11 08:58:50;;;;;;;;;;;;;;;10.38;48.99;100072.81;4938086;28;98191;-66
2022/12/11 09:01:17;;;;;;;;;;;;;;;10.38;48.64;100079.00;4952762;28;128452;-68
2022/12/11 09:03:43;;;;;;;;;;;;;;;10.41;48.75;100085.72;4953605;28;115059;-65
2022/12/11 09:06:11;;;;;;;;;;;;;;;10.41;49.31;100085.72;4937231;28;118868;-65
2022/12/11 09:08:37;;;;;;;;;;;;;;;10.43;48.88;100088.94;4953391;28;98604;-66
2022/12/11 09:11:10;;;;;;;;;;;;;;;10.43;48.99;100086.25;4971691;28;126936;-66
2022/12/11 09:13:36;;;;;;;;;;;;;;;10.44;48.76;100079.78;4953245;28;129003;-68
2022/12/11 09:16:04;;;;;;;;;;;;;;;10.44;49.15;100083.28;4957064;28;98148;-67
2022/12/11 09:18:30;;;;;;;;;;;;;;;10.47;49.23;100087.31;4970369;28;98666;-66
2022/12/11 09:21:09;;;;;;;;;;;;;;;10.49;48.68;100077.88;4957176;28;98077;-69
2022/12/11 09:23:35;;;;;;;;;;;;;;;10.49;48.99;100077.88;4940102;28;98424;-69
2022/12/11 09:26:09;;;;;;;;;;;;;;;10.50;49.15;100068.72;4951361;28;116669;-66
2022/12/11 09:28:35;;;;;;;;;;;;;;;10.50;48.92;100073.31;4954883;28;98362;-68
2022/12/11 09:31:06;;;;;;;;;;;;;;;10.49;48.74;100071.66;4954577;28;120408;-65
2022/12/11 09:33:32;;;;;;;;;;;;;;;10.49;48.86;100072.50;4966322;28;125334;-69
2022/12/11 09:35:59;;;;;;;;;;;;;;;10.49;48.76;100063.59;4956393;28;115330;-69
2022/12/11 09:38:25;;;;;;;;;;;;;;;10.49;49.05;100061.72;4967504;28;98725;-69
2022/12/11 09:40:51;;;;;;;;;;;;;;;10.49;49.40;100058.19;4954403;28;119008;-65
2022/12/11 09:43:35;;;;;;;;;;;;;;;10.48;48.70;100048.50;4948828;28;127182;-66
2022/12/11 09:46:03;;;;;;;;;;;;;;;10.49;48.92;100056.34;4955503;28;102768;-66
2022/12/11 09:48:29;;;;;;;;;;;;;;;10.51;48.76;100058.75;4938751;28;116363;-66
2022/12/11 09:50:55;;;;;;;;;;;;;;;10.51;48.91;100054.16;4953138;28;98026;-66
2022/12/11 09:53:31;;;;;;;;;;;;;;;10.52;48.93;100057.66;4952657;28;98424;-68
2022/12/11 09:56:06;;;;;;;;;;;;;;;10.52;48.74;100063.03;4952491;28;114471;-68
2022/12/11 09:58:46;;;;;;;;;;;;;;;10.53;49.35;100060.09;4950087;28;128330;-68
2022/12/11 10:01:37;;;;;;;;;;;;;;;10.53;48.48;100052.00;4968904;28;118061;-66
2022/12/11 10:04:30;;;;;;;;;;;;;;;10.56;48.94;100062.19;4956318;28;98212;-65
2022/12/11 10:07:21;;;;;;;;;;;;;;;10.57;48.96;100060.31;4965430;28;99411;-66
2022/12/11 10:10:05;;;;;;;;;;;;;;;10.60;48.54;100059.75;4965404;28;98969;-69
2022/12/11 10:12:49;;;;;;;;;;;;;;;10.60;49.01;100051.69;4971059;27;99710;-69
2022/12/11 10:15:39;;;;;;;;;;;;;;;10.61;49.09;100060.56;4940057;28;124076;-69
2022/12/11 10:18:08;;;;;;;;;;;;;;;10.60;48.98;100051.69;4924429;28;99283;-68
2022/12/11 10:20:37;;;;;;;;;;;;;;;10.61;48.96;100047.09;4931913;27;99638;-69
2022/12/11 10:23:07;;;;;;;;;;;;;;;10.59;48.50;100044.69;4957652;28;98541;-66
2022/12/11 10:25:41;;;;;;;;;;;;;;;10.60;48.77;100042.78;4958839;28;98088;-66
2022/12/11 10:28:15;;;;;;;;;;;;;;;10.62;49.01;100046.03;4944611;28;98265;-66
2022/12/11 10:31:22;;;;;;;;;;;;;;;10.62;49.08;100044.13;4947799;28;98259;-66
2022/12/11 10:34:04;;;;;;;;;;;;;;;10.62;48.72;100037.94;4952532;28;99555;-69
2022/12/11 10:36:33;;;;;;;;;;;;;;;10.63;48.71;100032.25;4936912;28;101593;-66
2022/12/11 10:38:59;;;;;;;;;;;;;;;10.65;48.75;100029.28;4937305;28;98616;-66
2022/12/11 10:41:39;;;;;;;;;;;;;;;10.66;48.81;100020.13;4938218;28;100117;-66
2022/12/11 10:44:20;;;;;;;;;;;;;;;10.66;48.78;100009.34;4949557;28;123767;-66
2022/12/11 10:46:47;;;;;;;;;;;;;;;10.66;48.71;100010.16;4972136;28;98500;-68
2022/12/11 10:49:27;;;;;;;;;;;;;;;10.67;49.00;100016.34;4941092;28;98226;-67
2022/12/11 10:51:54;;;;;;;;;;;;;;;10.67;49.03;100019.03;4942291;28;98140;-69
2022/12/11 10:54:37;;;;;;;;;;;;;;;10.67;48.95;100019.03;4964694;28;99557;-66
2022/12/11 10:57:04;;;;;;;;;;;;;;;10.65;49.09;100019.31;4939280;28;98436;-68
2022/12/11 10:59:35;;;;;;;;;;;;;;;10.65;48.64;100019.31;4945328;28;98584;-66
2022/12/11 11:02:01;;;;;;;;;;;;;;;10.63;49.03;100010.69;4973251;28;100015;-65
2022/12/11 11:04:36;;;;;;;;;;;;;;;10.63;48.69;100010.69;4973151;28;106731;-65
2022/12/11 11:07:15;;;;;;;;;;;;;;;10.62;49.11;100008.28;4950614;28;99597;-67
2022/12/11 11:09:41;;;;;;;;;;;;;;;10.62;48.91;100003.69;4943938;28;98143;-66
2022/12/11 11:12:23;;;;;;;;;;;;;;;10.63;49.28;100004.50;4939538;28;101160;-65
2022/12/11 11:15:03;;;;;;;;;;;;;;;10.64;48.66;100006.09;4955312;28;99477;-65
2022/12/11 11:17:30;;;;;;;;;;;;;;;10.63;48.86;99999.91;4951429;28;126632;-65
2022/12/11 11:19:56;;;;;;;;;;;;;;;10.63;48.88;99999.91;4940160;28;99536;-65
2022/12/11 11:22:22;;;;;;;;;;;;;;;10.63;49.06;99996.41;4952794;28;124901;-66
2022/12/11 11:24:53;;;;;;;;;;;;;;;10.63;48.87;99993.72;4953230;28;98652;-66
2022/12/11 11:27:35;;;;;;;;;;;;;;;10.63;48.85;99988.34;4939320;28;105036;-65
2022/12/11 11:30:04;;;;;;;;;;;;;;;10.62;49.28;99986.72;4950647;28;98486;-67
2022/12/11 11:32:37;;;;;;;;;;;;;;;10.63;49.11;99988.34;4970865;28;98142;-68
2022/12/11 11:35:24;;;;;;;;;;;;;;;10.63;48.98;99986.44;4939135;28;100825;-69
2022/12/11 11:38:02;;;;;;;;;;;;;;;10.63;48.86;99989.13;4970256;28;98657;-69
2022/12/11 11:40:29;;;;;;;;;;;;;;;10.64;49.06;99988.03;4955047;28;98026;-69
2022/12/11 11:43:14;;;;;;;;;;;;;;;10.63;48.74;99986.44;4939933;28;99818;-69
2022/12/11 11:45:45;;;;;;;;;;;;;;;10.65;49.13;99980.75;4955438;28;100148;-65
2022/12/11 11:48:14;;;;;;;;;;;;;;;10.65;49.11;99976.19;4969511;28;120945;-67
2022/12/11 11:50:43;;;;;;;;;;;;;;;10.66;48.85;99977.81;4954865;28;98660;-65
2022/12/11 11:53:23;;;;;;;;;;;;;;;10.69;48.77;99965.63;4941995;28;98859;-65
2022/12/11 11:56:04;;;;;;;;;;;;;;;10.71;48.74;99966.97;4943390;28;98374;-67
2022/12/11 11:58:40;;;;;;;;;;;;;;;10.72;48.59;99968.59;4955256;28;126180;-67
2022/12/11 12:01:13;;;;;;;;;;;;;;;10.73;48.68;99964.03;4937162;28;101973;-66
2022/12/11 12:03:39;;;;;;;;;;;;;;;10.75;48.77;99965.34;4950544;28;99509;-65
2022/12/11 12:06:26;;;;;;;;;;;;;;;10.77;48.84;99970.47;4969644;28;128548;-65
2022/12/11 12:09:16;;;;;;;;;;;;;;;10.80;49.00;99965.28;4971750;28;111227;-67
2022/12/11 12:11:49;;;;;;;;;;;;;;;10.80;49.13;99964.47;4956906;28;98274;-67
2022/12/11 12:14:18;;;;;;;;;;;;;;;10.80;48.69;99964.47;4942452;28;100989;-65
2022/12/11 12:16:47;;;;;;;;;;;;;;;10.80;48.92;99953.69;4953476;28;98107;-69
2022/12/11 12:19:18;;;;;;;;;;;;;;;10.80;48.61;99951.81;4971344;28;98413;-69
2022/12/11 12:21:46;;;;;;;;;;;;;;;10.83;48.81;99945.06;4970948;28;98284;-69
2022/12/11 12:24:43;;;;;;;;;;;;;;;10.86;49.05;99947.19;4943592;28;98118;-67
2022/12/11 12:27:18;;;;;;;;;;;;;;;10.90;48.82;99944.75;4974491;28;98496;-65
2022/12/11 12:30:01;;;;;;;;;;;;;;;10.92;48.70;99950.66;4957668;28;98887;-69
2022/12/11 12:32:30;;;;;;;;;;;;;;;10.93;48.68;99947.69;4958179;28;98027;-65
2022/12/11 12:35:05;;;;;;;;;;;;;;;10.96;48.78;99949.78;4969749;28;127383;-67
2022/12/11 12:37:54;;;;;;;;;;;;;;;10.97;48.85;99954.13;4974132;28;127405;-67
2022/12/11 12:40:23;;;;;;;;;;;;;;;10.98;48.96;99946.84;4947985;28;99530;-69
2022/12/11 12:42:56;;;;;;;;;;;;;;;11.01;48.74;99949.78;4953549;28;98780;-68
2022/12/11 12:45:26;;;;;;;;;;;;;;;11.00;49.01;99944.66;4929809;28;117262;-65
2022/12/11 12:47:51;;;;;;;;;;;;;;;11.00;48.63;99934.69;4935728;28;104087;-65
2022/12/11 12:50:25;;;;;;;;;;;;;;;11.01;48.60;99938.19;4936783;28;126748;-67
2022/12/11 12:52:51;;;;;;;;;;;;;;;11.02;48.77;99945.97;4935578;28;98691;-67
2022/12/11 12:55:26;;;;;;;;;;;;;;;11.01;48.97;99936.28;4932312;28;99536;-68
2022/12/11 12:58:05;;;;;;;;;;;;;;;11.03;48.67;99939.50;4916589;28;99377;-65